Time;durP1;ratioP1;P1;durP2;ratioP2;P2;SDS_P1;SDS_P2;PMS_P1;PMS_P2;Temp;Humidity;BMP_temperature;BMP_pressure;BME280_temperature;BME280_humidity;BME280_pressure;Samples;Min_cycle;Max_cycle;Signal;HPM_P1;HPM_P2
2022/06/27 00:04:03;;;;;;;;;;;;;;;17.45;99.94;99086.50;10299045;23;19923;-76
2022/06/27 00:08:04;;;;;;;;;;;;;;;17.43;100.00;99087.50;10299770;23;19935;-76
2022/06/27 00:12:07;;;;;;;;;;;;;;;17.44;100.00;99071.69;10326063;23;20545;-76
2022/06/27 00:16:08;;;;;;;;;;;;;;;17.42;100.00;99076.13;10304918;22;19963;-76
2022/06/27 00:20:30;;;;;;;;;;;;;;;17.38;100.00;99064.00;10327815;22;19988;-76
2022/06/27 00:24:31;;;;;;;;;;;;;;;17.33;100.00;99075.59;10349458;22;19975;-76
2022/06/27 00:28:33;;;;;;;;;;;;;;;17.32;100.00;99074.75;10350202;22;19934;-76
2022/06/27 00:32:34;;;;;;;;;;;;;;;17.31;100.00;99088.78;10372532;22;19988;-76
2022/06/27 00:36:37;;;;;;;;;;;;;;;17.27;100.00;99108.19;10324341;23;19924;-76
2022/06/27 00:40:38;;;;;;;;;;;;;;;17.26;100.00;99109.09;10298418;23;19923;-75
2022/06/27 00:44:41;;;;;;;;;;;;;;;17.22;100.00;99118.81;10298224;23;20006;-76
2022/06/27 00:48:43;;;;;;;;;;;;;;;17.19;100.00;99116.31;10318848;23;19939;-76
2022/06/27 00:52:44;;;;;;;;;;;;;;;17.19;100.00;99107.59;10350068;22;19950;-76
2022/06/27 00:56:46;;;;;;;;;;;;;;;17.16;100.00;99115.56;10323116;23;19924;-76
2022/06/27 01:00:48;;;;;;;;;;;;;;;17.12;100.00;99127.94;10321318;22;20289;-76
2022/06/27 01:04:50;;;;;;;;;;;;;;;17.11;100.00;99147.22;10324287;23;20388;-76
2022/06/27 01:08:51;;;;;;;;;;;;;;;17.09;100.00;99156.06;10325609;22;19930;-76
2022/06/27 01:12:52;;;;;;;;;;;;;;;17.03;100.00;99185.09;10326447;22;19970;-76
2022/06/27 01:16:54;;;;;;;;;;;;;;;17.04;100.00;99176.34;10321177;22;19923;-76
2022/06/27 01:20:56;;;;;;;;;;;;;;;17.08;100.00;99162.22;10297536;23;19934;-76
2022/06/27 01:24:57;;;;;;;;;;;;;;;17.11;100.00;99120.13;10324864;22;19934;-76
2022/06/27 01:28:59;;;;;;;;;;;;;;;17.15;100.00;99103.38;10298854;23;19962;-76
2022/06/27 01:33:00;;;;;;;;;;;;;;;17.12;100.00;99100.84;10320422;22;19953;-77
2022/06/27 01:37:02;;;;;;;;;;;;;;;17.13;100.00;99097.31;10374658;22;19971;-76
2022/06/27 01:41:04;;;;;;;;;;;;;;;17.12;100.00;99074.63;10375459;22;19962;-77
2022/06/27 01:45:05;;;;;;;;;;;;;;;17.05;100.00;99071.34;10372921;22;19923;-76
2022/06/27 01:49:07;;;;;;;;;;;;;;;16.99;100.00;99081.22;10347517;22;19934;-76
2022/06/27 01:53:09;;;;;;;;;;;;;;;16.96;100.00;99090.03;10374216;22;20006;-76
2022/06/27 01:57:10;;;;;;;;;;;;;;;16.97;100.00;99073.41;10375161;22;20026;-76
2022/06/27 02:01:12;;;;;;;;;;;;;;;16.98;100.00;99045.41;10371909;22;19946;-77
2022/06/27 02:05:16;;;;;;;;;;;;;;;16.98;100.00;99037.53;10354800;22;19951;-77
2022/06/27 02:09:17;;;;;;;;;;;;;;;16.97;100.00;99049.78;10357969;22;19923;-77
2022/06/27 02:13:19;;;;;;;;;;;;;;;16.88;99.89;99087.69;10359166;22;19969;-76
2022/06/27 02:17:21;;;;;;;;;;;;;;;16.86;100.00;99096.50;10354005;22;20045;-77
2022/06/27 02:21:24;;;;;;;;;;;;;;;16.86;100.00;99134.06;10358736;22;20201;-77
2022/06/27 02:25:25;;;;;;;;;;;;;;;16.80;100.00;99133.44;10359275;22;20170;-77
2022/06/27 02:29:27;;;;;;;;;;;;;;;16.78;100.00;99125.63;10359094;22;19923;-77
2022/06/27 02:33:38;;;;;;;;;;;;;;;16.78;100.00;99145.75;10379217;22;19954;-76
2022/06/27 02:37:40;;;;;;;;;;;;;;;16.77;100.00;99165.00;10357796;22;20266;-76
2022/06/27 02:41:44;;;;;;;;;;;;;;;16.72;100.00;99151.22;10384028;22;20033;-76
2022/06/27 02:45:46;;;;;;;;;;;;;;;16.67;100.00;99095.44;10327326;22;20300;-76
2022/06/27 02:49:48;;;;;;;;;;;;;;;16.69;100.00;99144.28;10383542;22;20237;-77
2022/06/27 02:54:10;;;;;;;;;;;;;;;16.71;100.00;99141.63;10382693;22;19923;-77
2022/06/27 02:58:35;;;;;;;;;;;;;;;16.71;100.00;99139.00;10382322;22;19931;-77
2022/06/27 03:02:38;;;;;;;;;;;;;;;16.70;100.00;99139.91;10360108;22;19934;-77
2022/06/27 03:06:39;;;;;;;;;;;;;;;16.71;100.00;99115.41;10352904;22;20217;-77
2022/06/27 03:10:41;;;;;;;;;;;;;;;16.75;100.00;99130.13;10378008;22;20011;-77
2022/06/27 03:14:42;;;;;;;;;;;;;;;16.75;100.00;99133.59;10352438;22;19997;-77
2022/06/27 03:18:43;;;;;;;;;;;;;;;16.73;100.00;99145.06;10372773;22;19938;-76
2022/06/27 03:22:45;;;;;;;;;;;;;;;16.70;100.00;99106.69;10351957;22;19930;-76
2022/06/27 03:26:46;;;;;;;;;;;;;;;16.73;100.00;99098.72;10351020;22;19923;-76
2022/06/27 03:30:48;;;;;;;;;;;;;;;16.76;99.99;99095.97;10370320;22;20001;-77
2022/06/27 03:34:49;;;;;;;;;;;;;;;16.76;99.66;99103.84;10379488;22;20594;-77
2022/06/27 03:38:51;;;;;;;;;;;;;;;16.67;99.25;99113.78;10353221;22;19923;-77
2022/06/27 03:42:52;;;;;;;;;;;;;;;16.59;99.53;99106.16;10354511;22;20541;-77
2022/06/27 03:46:54;;;;;;;;;;;;;;;16.55;99.67;99094.91;10352688;22;19923;-76
2022/06/27 03:50:56;;;;;;;;;;;;;;;16.59;100.00;99099.13;10352175;22;19929;-77
2022/06/27 03:54:57;;;;;;;;;;;;;;;16.60;100.00;99124.44;10379880;22;19923;-77
2022/06/27 03:58:59;;;;;;;;;;;;;;;16.57;100.00;99121.94;10380430;22;20243;-77
2022/06/27 04:03:00;;;;;;;;;;;;;;;16.59;100.00;99114.00;10376268;22;19923;-77
2022/06/27 04:07:02;;;;;;;;;;;;;;;16.59;100.00;99125.34;10380990;22;19935;-77
2022/06/27 04:11:04;;;;;;;;;;;;;;;16.55;100.00;99136.00;10354425;22;19927;-77
2022/06/27 04:15:05;;;;;;;;;;;;;;;16.55;100.00;99131.63;10324702;22;19966;-77
2022/06/27 04:19:07;;;;;;;;;;;;;;;16.54;99.72;99116.78;10352910;22;19926;-77
2022/06/27 04:23:08;;;;;;;;;;;;;;;16.54;100.00;99115.94;10354486;22;19934;-77
2022/06/27 04:27:09;;;;;;;;;;;;;;;16.57;100.00;99111.44;10354284;22;19923;-77
2022/06/27 04:31:11;;;;;;;;;;;;;;;16.59;99.86;99088.66;10350124;22;20282;-77
2022/06/27 04:35:12;;;;;;;;;;;;;;;16.64;100.00;99101.59;10353669;22;20022;-77
2022/06/27 04:39:17;;;;;;;;;;;;;;;16.67;100.00;99127.75;10354528;22;19979;-77
2022/06/27 04:43:19;;;;;;;;;;;;;;;16.68;100.00;99131.22;10354251;22;19923;-77
2022/06/27 04:47:21;;;;;;;;;;;;;;;16.75;100.00;99132.75;10349224;22;20305;-77
2022/06/27 04:51:22;;;;;;;;;;;;;;;16.77;99.86;99168.50;10380476;22;19962;-76
2022/06/27 04:55:25;;;;;;;;;;;;;;;16.74;98.91;99145.00;10354126;22;20497;-77
2022/06/27 04:59:27;;;;;;;;;;;;;;;16.78;99.14;99164.09;10380525;22;19959;-77
2022/06/27 05:03:28;;;;;;;;;;;;;;;16.85;99.27;99190.06;10325181;22;19959;-77
2022/06/27 05:07:31;;;;;;;;;;;;;;;16.91;99.42;99170.66;10380478;22;20458;-77
2022/06/27 05:11:32;;;;;;;;;;;;;;;17.08;99.64;99172.72;10327760;22;19923;-77
2022/06/27 05:15:34;;;;;;;;;;;;;;;17.14;98.47;99183.00;10349526;22;19943;-78
2022/06/27 05:19:35;;;;;;;;;;;;;;;17.21;98.39;99187.97;10380090;22;19969;-77
2022/06/27 05:23:39;;;;;;;;;;;;;;;17.46;97.95;99192.38;10353176;22;19958;-78
2022/06/27 05:27:41;;;;;;;;;;;;;;;17.67;97.42;99209.13;10354434;22;19930;-78
2022/06/27 05:31:42;;;;;;;;;;;;;;;17.67;96.25;99185.47;10324645;22;19923;-78
2022/06/27 05:35:44;;;;;;;;;;;;;;;17.64;94.98;99189.09;10328823;23;20266;-78
2022/06/27 05:39:46;;;;;;;;;;;;;;;17.58;94.73;99188.44;10302104;23;19935;-76
2022/06/27 05:43:47;;;;;;;;;;;;;;;17.58;95.46;99206.81;10299821;23;19951;-78
2022/06/27 05:47:57;;;;;;;;;;;;;;;17.68;95.98;99190.72;10324627;23;19926;-78
2022/06/27 05:51:59;;;;;;;;;;;;;;;17.88;94.69;99183.88;10330271;22;20317;-78
2022/06/27 05:56:02;;;;;;;;;;;;;;;18.17;94.30;99188.88;10329963;23;19923;-79
2022/06/27 06:00:05;;;;;;;;;;;;;;;18.40;94.00;99169.56;10327954;22;20458;-78
2022/06/27 06:04:06;;;;;;;;;;;;;;;18.51;92.87;99162.13;10328461;23;20503;-78
2022/06/27 06:08:08;;;;;;;;;;;;;;;18.61;91.81;99171.34;10330094;22;19931;-78
2022/06/27 06:12:11;;;;;;;;;;;;;;;18.73;91.04;99175.28;10303579;23;19923;-78
2022/06/27 06:16:20;;;;;;;;;;;;;;;18.68;90.23;99208.81;10321900;22;19973;-78
2022/06/27 06:20:22;;;;;;;;;;;;;;;18.54;90.65;99229.50;10328782;23;20279;-79
2022/06/27 06:24:27;;;;;;;;;;;;;;;18.36;90.75;99220.56;10331229;22;19924;-79
2022/06/27 06:28:35;;;;;;;;;;;;;;;18.32;91.97;99203.22;10329162;22;20677;-79
2022/06/27 06:32:36;;;;;;;;;;;;;;;18.35;92.61;99218.84;10325264;22;20275;-78
2022/06/27 06:36:38;;;;;;;;;;;;;;;18.36;92.55;99205.66;10304224;23;19920;-79
2022/06/27 06:40:40;;;;;;;;;;;;;;;18.37;91.79;99203.88;10329037;23;20238;-79
2022/06/27 06:44:41;;;;;;;;;;;;;;;18.41;91.73;99193.16;10329264;23;20594;-79
2022/06/27 06:48:43;;;;;;;;;;;;;;;18.49;92.58;99173.59;10298397;23;19969;-78
2022/06/27 06:52:52;;;;;;;;;;;;;;;18.53;92.96;99185.72;10329829;23;20260;-79
2022/06/27 06:56:53;;;;;;;;;;;;;;;18.53;92.04;99198.88;10332013;22;19923;-80
2022/06/27 07:00:56;;;;;;;;;;;;;;;18.45;91.21;99235.13;10325931;22;19955;-77
2022/06/27 07:04:58;;;;;;;;;;;;;;;18.36;92.18;99254.75;10328098;23;19955;-77
2022/06/27 07:09:00;;;;;;;;;;;;;;;18.40;92.83;99245.81;10303852;23;19923;-77
2022/06/27 07:13:03;;;;;;;;;;;;;;;18.46;92.89;99237.69;10327857;23;19923;-78
2022/06/27 07:17:05;;;;;;;;;;;;;;;18.49;92.18;99242.84;10323865;22;19927;-76
2022/06/27 07:21:06;;;;;;;;;;;;;;;18.63;91.94;99247.56;10329348;22;20845;-77
2022/06/27 07:25:09;;;;;;;;;;;;;;;18.67;91.61;99284.25;10327154;22;20144;-76
2022/06/27 07:29:10;;;;;;;;;;;;;;;18.70;91.55;99276.22;10325447;23;19962;-77
2022/06/27 07:33:12;;;;;;;;;;;;;;;18.90;91.21;99269.31;10328346;22;19947;-77
2022/06/27 07:37:13;;;;;;;;;;;;;;;19.16;90.71;99294.56;10326618;22;19923;-77
2022/06/27 07:41:16;;;;;;;;;;;;;;;19.04;89.11;99285.41;10351534;22;20292;-77
2022/06/27 07:45:18;;;;;;;;;;;;;;;18.96;89.17;99298.84;10374819;22;20290;-76
2022/06/27 07:49:19;;;;;;;;;;;;;;;18.94;88.38;99328.78;10323994;22;19935;-77
2022/06/27 07:53:21;;;;;;;;;;;;;;;18.88;88.25;99331.66;10348982;22;19923;-77
2022/06/27 07:57:23;;;;;;;;;;;;;;;18.86;87.87;99325.59;10377518;22;20218;-77
2022/06/27 08:01:27;;;;;;;;;;;;;;;18.77;85.50;99326.81;10346496;22;19951;-77
2022/06/27 08:05:29;;;;;;;;;;;;;;;18.64;86.10;99326.41;10377668;22;19930;-77
2022/06/27 08:09:30;;;;;;;;;;;;;;;18.67;87.21;99313.16;10323655;22;19961;-77
2022/06/27 08:13:32;;;;;;;;;;;;;;;18.68;86.65;99322.78;10375392;22;20026;-76
2022/06/27 08:17:34;;;;;;;;;;;;;;;18.64;86.99;99350.09;10339985;22;19935;-77
2022/06/27 08:21:37;;;;;;;;;;;;;;;18.57;87.24;99368.75;10344159;22;19927;-77
2022/06/27 08:25:38;;;;;;;;;;;;;;;18.42;87.15;99365.78;10344253;22;19950;-77
2022/06/27 08:29:41;;;;;;;;;;;;;;;18.36;87.47;99352.88;10370193;22;19923;-77
2022/06/27 08:33:43;;;;;;;;;;;;;;;18.31;87.83;99353.94;10312819;22;19923;-77
2022/06/27 08:37:45;;;;;;;;;;;;;;;18.27;88.85;99368.97;10375018;22;19950;-76
2022/06/27 08:41:47;;;;;;;;;;;;;;;18.23;88.13;99364.72;10348455;22;19923;-76
2022/06/27 08:45:51;;;;;;;;;;;;;;;18.26;88.89;99400.56;10370051;22;19923;-77
2022/06/27 08:49:52;;;;;;;;;;;;;;;18.24;89.49;99402.38;10322466;22;19923;-77
2022/06/27 08:53:54;;;;;;;;;;;;;;;18.26;89.71;99396.16;10348030;22;20006;-77
2022/06/27 08:57:59;;;;;;;;;;;;;;;18.18;88.69;99400.00;10345716;22;19938;-77
2022/06/27 09:02:01;;;;;;;;;;;;;;;18.16;88.18;99409.69;10342265;22;19923;-76
2022/06/27 09:06:04;;;;;;;;;;;;;;;18.12;87.85;99412.41;10369426;22;20220;-77
2022/06/27 09:10:26;;;;;;;;;;;;;;;18.14;87.86;99415.00;10370531;22;19928;-76
2022/06/27 09:14:39;;;;;;;;;;;;;;;18.12;88.60;99419.44;10318528;22;20340;-77
2022/06/27 09:18:42;;;;;;;;;;;;;;;18.12;87.46;99422.91;10339756;22;19923;-77
2022/06/27 09:22:44;;;;;;;;;;;;;;;18.15;87.91;99426.38;10370004;22;20293;-77
2022/06/27 09:26:47;;;;;;;;;;;;;;;18.11;88.21;99413.31;10318838;22;19984;-77
2022/06/27 09:30:48;;;;;;;;;;;;;;;18.14;87.69;99407.13;10365807;22;20343;-77
2022/06/27 09:34:50;;;;;;;;;;;;;;;18.15;86.08;99403.59;10318049;22;19934;-77
2022/06/27 09:38:52;;;;;;;;;;;;;;;18.32;86.89;99414.38;10344712;22;19930;-77
2022/06/27 09:42:55;;;;;;;;;;;;;;;18.56;86.42;99431.03;10371705;22;20641;-77
2022/06/27 09:47:09;;;;;;;;;;;;;;;18.64;84.63;99425.50;10367122;22;20618;-77
2022/06/27 09:51:15;;;;;;;;;;;;;;;18.76;84.73;99432.94;10372499;22;19930;-77
2022/06/27 09:55:18;;;;;;;;;;;;;;;18.61;82.80;99430.84;10319168;22;20156;-77
2022/06/27 09:59:20;;;;;;;;;;;;;;;18.50;82.35;99436.50;10341393;22;20018;-77
2022/06/27 10:03:22;;;;;;;;;;;;;;;18.42;83.53;99446.44;10336963;22;19923;-77
2022/06/27 10:07:25;;;;;;;;;;;;;;;18.40;84.11;99441.22;10343582;22;19923;-77
2022/06/27 10:11:27;;;;;;;;;;;;;;;18.32;83.55;99458.19;10342800;22;20030;-77
2022/06/27 10:15:29;;;;;;;;;;;;;;;18.32;83.57;99442.44;10365216;22;19931;-77
2022/06/27 10:19:30;;;;;;;;;;;;;;;18.43;83.47;99437.63;10369662;22;19930;-77
2022/06/27 10:23:37;;;;;;;;;;;;;;;18.70;83.70;99430.56;10344330;22;19962;-77
2022/06/27 10:27:39;;;;;;;;;;;;;;;19.23;83.87;99417.13;10348845;22;19923;-79
2022/06/27 10:31:44;;;;;;;;;;;;;;;19.69;82.85;99413.53;10324558;22;19923;-79
2022/06/27 10:35:59;;;;;;;;;;;;;;;19.91;80.08;99416.97;10352887;22;20002;-79
2022/06/27 10:40:19;;;;;;;;;;;;;;;19.82;76.54;99434.97;10381846;22;19926;-80
2022/06/27 10:44:29;;;;;;;;;;;;;;;19.57;78.24;99429.84;10355749;22;19934;-80
2022/06/27 10:48:35;;;;;;;;;;;;;;;19.34;78.30;99451.78;10325976;22;19921;-80
2022/06/27 10:52:37;;;;;;;;;;;;;;;19.25;78.65;99454.78;10356524;22;19927;-79
2022/06/27 10:56:41;;;;;;;;;;;;;;;19.39;79.24;99448.97;10356591;22;20344;-79
2022/06/27 11:00:43;;;;;;;;;;;;;;;19.73;80.01;99430.06;10381994;22;19923;-80
2022/06/27 11:04:44;;;;;;;;;;;;;;;19.97;78.21;99436.97;10350473;22;19923;-81
2022/06/27 11:08:47;;;;;;;;;;;;;;;20.07;76.27;99443.56;10326672;22;20519;-81
2022/06/27 11:12:55;;;;;;;;;;;;;;;19.97;75.51;99436.97;10382190;22;19923;-81
2022/06/27 11:16:57;;;;;;;;;;;;;;;19.89;76.27;99413.56;10327779;22;19927;-80
2022/06/27 11:20:58;;;;;;;;;;;;;;;19.86;75.98;99429.50;10332424;22;19920;-80
2022/06/27 11:25:00;;;;;;;;;;;;;;;19.87;77.12;99436.47;10383836;22;19931;-80
2022/06/27 11:33:24;;;;;;;;;;;;;;;19.90;76.62;99438.97;10351643;22;19930;-80
2022/06/27 11:37:28;;;;;;;;;;;;;;;19.91;77.92;99439.84;10357453;22;19927;-80
2022/06/27 11:41:30;;;;;;;;;;;;;;;19.77;78.14;99440.44;10356252;22;19923;-79
2022/06/27 11:45:40;;;;;;;;;;;;;;;19.63;78.13;99434.88;10378419;22;19923;-80
2022/06/27 11:49:42;;;;;;;;;;;;;;;19.76;79.34;99427.31;10355342;22;20167;-79
2022/06/27 11:53:52;;;;;;;;;;;;;;;19.83;77.73;99431.41;10357011;22;20159;-79
2022/06/27 11:58:00;;;;;;;;;;;;;;;19.99;78.00;99437.75;10357245;22;19930;-80
2022/06/27 12:02:03;;;;;;;;;;;;;;;20.18;78.00;99435.19;10350455;22;19923;-79
2022/06/27 12:06:14;;;;;;;;;;;;;;;20.30;76.81;99439.94;10354224;22;19919;-79
2022/06/27 12:10:16;;;;;;;;;;;;;;;20.37;75.14;99451.09;10380165;22;20290;-79
2022/06/27 12:14:17;;;;;;;;;;;;;;;20.42;75.74;99455.25;10353773;22;19963;-79
2022/06/27 12:18:19;;;;;;;;;;;;;;;20.42;74.68;99471.09;10375748;22;19923;-79
2022/06/27 12:22:21;;;;;;;;;;;;;;;20.43;75.13;99448.19;10328960;22;20172;-79
2022/06/27 12:26:42;;;;;;;;;;;;;;;20.37;73.88;99467.75;10333115;22;19972;-80
2022/06/27 12:30:44;;;;;;;;;;;;;;;20.25;74.49;99485.88;10350799;22;19923;-79
2022/06/27 12:34:45;;;;;;;;;;;;;;;20.11;75.57;99486.47;10330002;22;19947;-79
2022/06/27 12:38:46;;;;;;;;;;;;;;;20.06;75.76;99497.19;10356460;22;19923;-80
2022/06/27 12:42:48;;;;;;;;;;;;;;;20.04;75.51;99495.56;10382439;22;19951;-80
2022/06/27 12:46:49;;;;;;;;;;;;;;;20.02;76.16;99505.31;10378154;22;19923;-80
2022/06/27 12:50:58;;;;;;;;;;;;;;;19.97;77.08;99492.31;10350569;22;19923;-80
2022/06/27 12:54:59;;;;;;;;;;;;;;;19.96;76.38;99497.66;10379466;22;19923;-79
2022/06/27 12:59:01;;;;;;;;;;;;;;;19.88;76.55;99498.81;10351116;22;19930;-80
2022/06/27 13:03:02;;;;;;;;;;;;;;;19.82;76.90;99503.47;10347425;22;19959;-79
2022/06/27 13:07:10;;;;;;;;;;;;;;;19.77;76.33;99519.47;10353818;22;19919;-79
2022/06/27 13:11:11;;;;;;;;;;;;;;;19.75;76.81;99521.31;10354861;22;19923;-80
2022/06/27 13:15:14;;;;;;;;;;;;;;;19.77;76.57;99539.72;10326066;22;19923;-79
2022/06/27 13:19:16;;;;;;;;;;;;;;;19.70;76.36;99543.47;10354415;22;19966;-80
2022/06/27 13:23:17;;;;;;;;;;;;;;;19.69;76.54;99552.31;10354468;22;20489;-80
2022/06/27 13:27:19;;;;;;;;;;;;;;;19.60;78.02;99549.13;10380035;22;19933;-79
2022/06/27 13:31:21;;;;;;;;;;;;;;;19.59;78.07;99563.22;10348531;22;19924;-79
2022/06/27 13:35:23;;;;;;;;;;;;;;;19.72;77.46;99555.66;10328345;23;20018;-78
2022/06/27 13:39:26;;;;;;;;;;;;;;;19.89;77.79;99561.13;10304226;23;19959;-79
2022/06/27 13:43:28;;;;;;;;;;;;;;;19.87;76.75;99549.81;10329391;23;19928;-80
2022/06/27 13:47:29;;;;;;;;;;;;;;;20.03;76.49;99541.28;10324908;23;19958;-79
2022/06/27 13:51:31;;;;;;;;;;;;;;;20.23;76.81;99538.69;10330206;23;19923;-79
2022/06/27 13:55:32;;;;;;;;;;;;;;;20.40;75.81;99527.44;10330164;23;19931;-80
2022/06/27 13:59:34;;;;;;;;;;;;;;;20.44;73.99;99537.81;10328812;23;19924;-80
2022/06/27 14:03:35;;;;;;;;;;;;;;;20.48;73.30;99543.84;10327331;22;19931;-80
2022/06/27 14:07:40;;;;;;;;;;;;;;;20.66;73.28;99544.84;10331929;22;19920;-80
2022/06/27 14:11:41;;;;;;;;;;;;;;;20.72;72.33;99547.19;10330293;23;19923;-80
2022/06/27 14:15:43;;;;;;;;;;;;;;;20.83;73.07;99539.69;10327407;22;19934;-80
2022/06/27 14:19:44;;;;;;;;;;;;;;;21.07;73.31;99553.56;10305993;23;20246;-80
2022/06/27 14:23:46;;;;;;;;;;;;;;;21.33;71.95;99537.41;10330723;23;19923;-79
2022/06/27 14:27:47;;;;;;;;;;;;;;;21.47;71.27;99522.72;10331472;23;19935;-79
2022/06/27 14:31:49;;;;;;;;;;;;;;;21.50;69.53;99541.06;10328781;22;20607;-79
2022/06/27 14:35:50;;;;;;;;;;;;;;;21.55;69.38;99541.72;10330595;23;20321;-80
2022/06/27 14:39:52;;;;;;;;;;;;;;;21.54;68.26;99540.00;10305235;23;19923;-79
2022/06/27 14:43:53;;;;;;;;;;;;;;;21.57;69.62;99538.09;10305809;23;19959;-80
2022/06/27 14:47:55;;;;;;;;;;;;;;;21.59;69.86;99533.59;10327521;23;19930;-80
2022/06/27 14:51:56;;;;;;;;;;;;;;;21.87;71.34;99543.69;10331690;22;19920;-81
2022/06/27 14:55:58;;;;;;;;;;;;;;;21.89;68.25;99538.31;10330650;23;19970;-81
2022/06/27 14:59:59;;;;;;;;;;;;;;;21.88;69.20;99518.94;10331476;23;19934;-80
2022/06/27 15:04:01;;;;;;;;;;;;;;;21.90;69.50;99525.06;10328156;22;19920;-80
2022/06/27 15:08:03;;;;;;;;;;;;;;;22.14;70.36;99522.16;10332535;22;19934;-80
2022/06/27 15:12:04;;;;;;;;;;;;;;;22.83;70.26;99533.63;10306807;23;19923;-80
2022/06/27 15:16:06;;;;;;;;;;;;;;;23.43;66.91;99517.16;10300733;22;19923;-80
2022/06/27 15:20:11;;;;;;;;;;;;;;;23.44;63.03;99518.88;10331298;23;20150;-80
2022/06/27 15:24:12;;;;;;;;;;;;;;;23.04;62.42;99520.19;10298399;23;19924;-78
2022/06/27 15:28:14;;;;;;;;;;;;;;;22.66;62.81;99509.78;10322107;23;19959;-77
2022/06/27 15:32:16;;;;;;;;;;;;;;;22.33;64.48;99527.38;10318439;22;19939;-77
2022/06/27 15:36:17;;;;;;;;;;;;;;;22.21;65.39;99521.75;10297197;23;20002;-78
2022/06/27 15:40:23;;;;;;;;;;;;;;;22.36;64.93;99525.44;10323591;23;19923;-77
2022/06/27 15:44:25;;;;;;;;;;;;;;;22.63;64.66;99517.88;10325023;22;20530;-77
2022/06/27 15:48:26;;;;;;;;;;;;;;;22.68;61.80;99518.50;10323131;23;20003;-77
2022/06/27 15:52:29;;;;;;;;;;;;;;;22.85;62.07;99515.00;10322316;23;19927;-77
2022/06/27 15:56:30;;;;;;;;;;;;;;;22.88;61.93;99525.44;10321905;23;20556;-77
2022/06/27 16:00:32;;;;;;;;;;;;;;;22.66;61.01;99535.41;10292626;22;20561;-76
2022/06/27 16:04:33;;;;;;;;;;;;;;;22.42;61.87;99534.84;10322572;23;19963;-77
2022/06/27 16:08:35;;;;;;;;;;;;;;;22.18;61.49;99548.38;10320266;23;19934;-77
2022/06/27 16:12:36;;;;;;;;;;;;;;;21.85;61.55;99557.91;10305141;23;20186;-80
2022/06/27 16:16:38;;;;;;;;;;;;;;;21.61;63.19;99552.00;10327775;22;20015;-79
2022/06/27 16:20:40;;;;;;;;;;;;;;;21.44;65.44;99544.88;10331328;23;19919;-80
2022/06/27 16:24:41;;;;;;;;;;;;;;;21.34;65.45;99567.34;10304847;23;19924;-79
2022/06/27 16:28:43;;;;;;;;;;;;;;;21.15;65.56;99569.06;10331145;22;19923;-79
2022/06/27 16:32:44;;;;;;;;;;;;;;;21.01;66.08;99567.91;10323890;22;19961;-79
2022/06/27 16:36:47;;;;;;;;;;;;;;;20.89;67.48;99563.16;10306008;23;19934;-79
2022/06/27 16:40:48;;;;;;;;;;;;;;;20.78;67.67;99568.91;10331811;22;19927;-80
2022/06/27 16:44:50;;;;;;;;;;;;;;;20.71;68.98;99571.88;10305453;23;19923;-79
2022/06/27 16:48:51;;;;;;;;;;;;;;;20.67;68.38;99571.16;10300146;23;19924;-80
2022/06/27 16:52:52;;;;;;;;;;;;;;;20.64;67.78;99565.97;10303587;23;19950;-79
2022/06/27 16:56:54;;;;;;;;;;;;;;;20.56;69.25;99567.25;10330067;22;20361;-79
2022/06/27 17:00:56;;;;;;;;;;;;;;;20.50;69.15;99573.66;10329046;23;19963;-79
2022/06/27 17:04:58;;;;;;;;;;;;;;;20.45;70.21;99565.91;10331179;22;19970;-79
2022/06/27 17:08:59;;;;;;;;;;;;;;;20.50;70.29;99574.50;10327746;23;19969;-79
2022/06/27 17:13:02;;;;;;;;;;;;;;;20.44;70.73;99590.56;10328465;23;19935;-79
2022/06/27 17:17:03;;;;;;;;;;;;;;;20.44;72.64;99593.22;10327248;23;19963;-79
2022/06/27 17:21:05;;;;;;;;;;;;;;;20.40;73.33;99588.97;10329935;23;19923;-79
2022/06/27 17:25:07;;;;;;;;;;;;;;;20.50;72.13;99581.56;10331079;22;19923;-79
2022/06/27 17:29:09;;;;;;;;;;;;;;;20.56;70.21;99599.75;10331048;23;19924;-79
2022/06/27 17:33:11;;;;;;;;;;;;;;;20.57;69.44;99601.47;10330822;22;20230;-79
2022/06/27 17:37:13;;;;;;;;;;;;;;;20.64;69.02;99612.63;10381498;22;19919;-80
2022/06/27 17:41:14;;;;;;;;;;;;;;;20.58;68.43;99636.63;10380952;22;19935;-80
2022/06/27 17:45:16;;;;;;;;;;;;;;;20.53;68.37;99621.00;10354783;22;19927;-80
2022/06/27 17:49:18;;;;;;;;;;;;;;;20.51;67.45;99607.03;10351305;22;19923;-77
2022/06/27 17:53:19;;;;;;;;;;;;;;;20.43;67.48;99615.22;10346995;22;19930;-78
2022/06/27 17:57:20;;;;;;;;;;;;;;;20.37;68.76;99620.75;10375855;22;19923;-78
2022/06/27 18:01:22;;;;;;;;;;;;;;;20.24;68.08;99622.16;10376407;22;19920;-78
2022/06/27 18:05:40;;;;;;;;;;;;;;;20.19;69.03;99629.38;10376054;22;19919;-77
2022/06/27 18:09:42;;;;;;;;;;;;;;;20.13;69.28;99630.50;10349486;22;20269;-78
2022/06/27 18:13:44;;;;;;;;;;;;;;;20.05;68.86;99626.44;10371402;22;20336;-77
2022/06/27 18:17:45;;;;;;;;;;;;;;;19.97;69.02;99628.53;10347533;22;19923;-77
2022/06/27 18:21:47;;;;;;;;;;;;;;;19.85;69.60;99635.97;10373540;22;20258;-77
2022/06/27 18:25:48;;;;;;;;;;;;;;;19.75;70.35;99644.28;10348346;22;19991;-77
2022/06/27 18:29:49;;;;;;;;;;;;;;;19.59;69.94;99647.50;10374967;22;19923;-77
2022/06/27 18:33:51;;;;;;;;;;;;;;;19.42;71.18;99660.41;10374373;22;19955;-77
2022/06/27 18:37:52;;;;;;;;;;;;;;;19.21;72.44;99672.56;10348333;22;19923;-77
2022/06/27 18:41:54;;;;;;;;;;;;;;;19.09;73.62;99675.63;10322063;22;19923;-78
2022/06/27 18:45:55;;;;;;;;;;;;;;;18.92;76.75;99663.03;10322438;22;19970;-78
2022/06/27 18:49:57;;;;;;;;;;;;;;;18.75;78.18;99673.25;10324983;22;19927;-77
2022/06/27 18:53:58;;;;;;;;;;;;;;;18.62;80.06;99672.75;10376512;22;19959;-78
2022/06/27 18:58:00;;;;;;;;;;;;;;;18.60;80.57;99668.47;10351744;22;19964;-77
2022/06/27 19:02:01;;;;;;;;;;;;;;;18.48;81.23;99676.75;10349722;22;19923;-77
2022/06/27 19:06:05;;;;;;;;;;;;;;;18.34;81.52;99669.31;10349628;22;19931;-78
2022/06/27 19:10:08;;;;;;;;;;;;;;;18.20;82.57;99675.00;10324639;22;19976;-78
2022/06/27 19:14:10;;;;;;;;;;;;;;;18.09;82.96;99687.59;10349379;22;19934;-78
2022/06/27 19:18:11;;;;;;;;;;;;;;;17.87;83.30;99700.53;10325564;22;19930;-77
2022/06/27 19:22:13;;;;;;;;;;;;;;;17.76;83.87;99711.31;10325779;22;19923;-78
2022/06/27 19:26:14;;;;;;;;;;;;;;;17.68;84.46;99715.09;10323851;22;19923;-77
2022/06/27 19:30:16;;;;;;;;;;;;;;;17.56;85.45;99708.38;10324946;22;19930;-77
2022/06/27 19:34:24;;;;;;;;;;;;;;;17.49;86.01;99715.56;10375690;22;20063;-77
2022/06/27 19:38:25;;;;;;;;;;;;;;;17.33;85.55;99721.25;10349176;22;19955;-77
2022/06/27 19:42:27;;;;;;;;;;;;;;;17.21;85.77;99718.03;10372721;22;20367;-77
2022/06/27 19:46:29;;;;;;;;;;;;;;;17.15;86.03;99738.34;10371540;22;20321;-77
2022/06/27 19:50:31;;;;;;;;;;;;;;;16.92;86.58;99731.06;10346022;22;19923;-77
2022/06/27 19:54:33;;;;;;;;;;;;;;;16.70;86.98;99733.34;10373775;22;20281;-76
2022/06/27 19:58:34;;;;;;;;;;;;;;;16.52;87.78;99746.88;10321227;22;19955;-76
2022/06/27 20:02:36;;;;;;;;;;;;;;;16.52;88.57;99744.25;10373802;22;19923;-77
2022/06/27 20:06:38;;;;;;;;;;;;;;;16.47;88.88;99746.94;10372169;22;20451;-77
2022/06/27 20:10:39;;;;;;;;;;;;;;;16.38;88.26;99741.91;10369567;22;20002;-77
2022/06/27 20:14:42;;;;;;;;;;;;;;;16.18;88.46;99754.59;10372120;22;19923;-77
2022/06/27 20:18:43;;;;;;;;;;;;;;;16.13;89.00;99764.28;10371778;22;20310;-77
2022/06/27 20:22:47;;;;;;;;;;;;;;;16.07;88.94;99769.66;10345853;22;19933;-76
2022/06/27 20:26:49;;;;;;;;;;;;;;;15.95;89.03;99768.16;10372833;22;20364;-76
2022/06/27 20:30:50;;;;;;;;;;;;;;;15.87;89.43;99767.47;10372256;22;19923;-77
2022/06/27 20:34:51;;;;;;;;;;;;;;;15.81;89.61;99778.94;10345515;22;19923;-77
2022/06/27 20:38:53;;;;;;;;;;;;;;;15.74;89.38;99781.69;10345476;22;19923;-76
2022/06/27 20:42:55;;;;;;;;;;;;;;;15.63;89.60;99781.91;10346031;22;19922;-77
2022/06/27 20:46:57;;;;;;;;;;;;;;;15.51;89.92;99772.47;10347214;22;19923;-77
2022/06/27 20:50:58;;;;;;;;;;;;;;;15.43;90.34;99783.06;10347059;22;19923;-77